Sedgwick Reserve, California Weather observations

Data are for 10 minute period ending at time listed.
 Day   Time   Solar   Ave.   Ave.  Ave.  Vector  Max.   Baro.   Total    
  of    of     Rad.   Air    Rel.  Wind   Wind   Wind  Press.  Precip.   
Year   Day            Temp.  Hum.  Speed  Dir.   Gust                    
2016   (PST)  Kw/m2    F      %     mph   deg.    mph    mb.     in.     
-------------------------------------------------------------------------
  37   23:00   0.00   49.8    50    3.3   284     6.6   980.3    0.00 
  37   23:10   0.00   50.1    49    4.8     1     6.9   980.3    0.00 
  37   23:20   0.00   50.0    49    3.3   339     8.1   980.4    0.00 
  37   23:30   0.00   50.4    50    3.2   258     5.8   980.3    0.00 
  37   23:40   0.00   49.7    50    2.3   345     5.0   980.2    0.00 
  37   23:50   0.00   50.6    48    3.0   340     6.4   980.1    0.00 
  38    0:00   0.00   50.0    48    3.7   332     8.8   980.1    0.00 
  38    0:10   0.00   51.6    46    2.2   358     4.5   980.2    0.00 
  38    0:20   0.00   49.7    50    4.7     1     8.6   980.3    0.00 
  38    0:30   0.00   49.1    50    3.3   312     6.6   980.3    0.00 
  38    0:40   0.00   50.1    48    1.7   341     3.7   980.2    0.00 
  38    0:50   0.00   49.5    49    2.1    13     4.3   980.1    0.00 
  38    1:00   0.00   49.0    50    2.8   350     4.6   980.1    0.00 
  38    1:10   0.00   48.5    52    1.4   246     3.4   979.9    0.00 
  38    1:20   0.00   49.0    50    1.8    10     3.4   979.8    0.00 
  38    1:30   0.00   48.6    52    1.0   330     2.6   979.7    0.00 
  38    1:40   0.00   48.9    51    1.2   322     3.7   979.7    0.00 
  38    1:50   0.00   48.8    51    1.8   296     3.4   979.6    0.00 
  38    2:00   0.00   49.4    50    1.0     6     3.3   979.5    0.00 
  38    2:10   0.00   48.6    51    0.4   348     3.4   979.5    0.00 
  38    2:20   0.00   48.5    51    0.8   308     4.2   979.5    0.00 
  38    2:30   0.00   48.4    51    1.2   237     2.5   979.5    0.00 
  38    2:40   0.00   47.9    52    1.7   314     3.1   979.5    0.00 
  38    2:50   0.00   48.2    50    0.2    31     1.6   979.5    0.00 
  38    3:00   0.00   48.4    49    1.4    21     2.6   979.5    0.00 
  38    3:10   0.00   47.7    50    1.4   320     2.4   979.5    0.00 
  38    3:20   0.00   48.1    49    1.7     4     3.8   979.4    0.00 
  38    3:30   0.00   47.3    50    1.3   295     3.1   979.4    0.00 
  38    3:40   0.00   47.3    50    0.9   359     3.3   979.3    0.00 
  38    3:50   0.00   47.7    49    1.5   354     4.7   979.2    0.00 
  38    4:00   0.00   46.9    50    0.8   199     1.8   979.2    0.00 
  38    4:10   0.00   47.1    50    1.3   334     3.3   979.2    0.00 
  38    4:20   0.00   46.0    52    3.0   354     4.5   979.2    0.00 
  38    4:30   0.00   46.5    51    1.1   299     3.1   979.2    0.00 
  38    4:40   0.00   46.2    52    0.7   197     2.4   979.1    0.00 
  38    4:50   0.00   46.1    52    0.9   176     2.1   979.1    0.00 
  38    5:00   0.00   47.0    49    0.4   234     2.4   979.1    0.00 
  38    5:10   0.00   45.8    52    1.1     0     3.1   979.0    0.00 
  38    5:20   0.00   45.9    51    2.8   346     5.6   978.9    0.00 
  38    5:30   0.00   45.9    51    1.6   283     3.9   978.9    0.00 
  38    5:40   0.00   46.8    50    1.1   323     4.0   979.0    0.00 
  38    5:50   0.00   47.0    49    0.8   214     2.9   978.9    0.00 
  38    6:00   0.00   46.5    50    0.4   230     1.4   979.0    0.00 
  38    6:10   0.00   46.1    50    0.4   276     2.3   979.0    0.00 
  38    6:20   0.00   46.5    49    0.2    31     0.9   979.0    0.00 
  38    6:30   0.00   46.7    48    0.9   264     1.8   979.0    0.00 
  38    6:40   0.00   47.9    46    0.5     4     2.2   979.0    0.00 
  38    6:50   0.00   46.9    47    1.9   258     3.6   979.0    0.00 
  38    7:00   0.00   47.2    47    0.4    12     2.8   979.1    0.00 
  38    7:10   0.01   46.3    49    1.3   294     2.8   979.0    0.00 
  38    7:20   0.04   47.5    47    0.1   225     1.2   979.0    0.00 
  38    7:30   0.06   49.4    45    0.5   256     1.6   979.0    0.00 
  38    7:40   0.09   50.4    45    0.5   286     1.8   978.8    0.00 
  38    7:50   0.12   51.8    45    1.1   263     2.3   978.7    0.00 
  38    8:00   0.15   52.9    46    2.3     2     5.0   978.7    0.00 
  38    8:10   0.18   54.9    41    1.3   273     2.6   978.6    0.00 
  38    8:20   0.22   57.1    45    1.9     7     3.9   978.6    0.00 
  38    8:30   0.25   58.9    42    1.5   331     3.1   978.6    0.00 
  38    8:40   0.28   61.8    40    0.6     7     3.0   978.7    0.00 
  38    8:50   0.31   64.5    39    0.2    28     1.3   978.8    0.00 
  38    9:00   0.34   67.8    36    0.7    45     1.9   978.8    0.00 
  38    9:10   0.37   69.7    32    0.5   182     1.6   979.0    0.00 
  38    9:20   0.40   70.8    30    1.6   132     3.1   979.1    0.00 
  38    9:30   0.43   70.1    35    1.2    66     2.3   979.2    0.00 
  38    9:40   0.46   69.8    36    1.9   148     3.0   979.2    0.00 
  38    9:50   0.48   69.7    34    1.3   137     2.7   979.2    0.00 
  38   10:00   0.51   71.4    32    1.0   140     2.5   979.3    0.00 
  38   10:10   0.53   72.6    31    0.5   142     1.7   979.2    0.00 
  38   10:20   0.55   74.1    31    1.2   147     2.6   979.3    0.00 
  38   10:30   0.57   75.5    30    1.2   143     2.3   979.3    0.00 
  38   10:40   0.59   76.1    31    2.5   128     4.7   979.3    0.00 
  38   10:50   0.60   75.8    32    2.8   112     4.7   979.3    0.00 
  38   11:00   0.62   76.1    28    2.3   123     3.9   979.2    0.00 
  38   11:10   0.63   76.7    32    3.0   117     4.7   979.0    0.00 
  38   11:20   0.64   77.4    27    2.3   124     5.3   978.9    0.00 
  38   11:30   0.62   77.9    23    3.1   176     5.4   978.9    0.00 
  38   11:40   0.66   77.9    15    4.4   203     7.7   978.8    0.00 
  38   11:50   0.67   77.9    15    4.8   238     8.0   978.8    0.00 
  38   12:00   0.67   78.0    15    5.4   248     7.8   978.7    0.00 
  38   12:10   0.67   78.1    17    5.1   240     9.4   978.5    0.00 
  38   12:20   0.67   78.5    16    5.2   250     7.6   978.3    0.00 
  38   12:30   0.67   78.7    16    5.6   228     8.3   978.2    0.00 
  38   12:40   0.67   78.3    16    6.7   220     9.9   978.1    0.00 
  38   12:50   0.67   78.2    17    6.0   222     9.2   978.1    0.00 
  38   13:00   0.66   79.1    16    5.7   217     9.1   978.0    0.00 
  38   13:10   0.65   79.5    16    5.7   235     9.6   978.0    0.00 
  38   13:20   0.64   79.4    16    6.3   258    10.3   977.9    0.00 
  38   13:30   0.63   79.5    16    7.4   229    11.9   977.9    0.00 
  38   13:40   0.62   79.5    15    5.5   258     9.3   977.9    0.00 
  38   13:50   0.60   80.0    14    5.0   246    10.3   977.9    0.00 
  38   14:00   0.58   79.6    17    7.8   249    12.1   977.8    0.00 
  38   14:10   0.56   79.8    19    6.3   251    11.1   977.8    0.00 
  38   14:20   0.54   79.8    19    6.6   262     9.0   977.7    0.00 
  38   14:30   0.52   79.5    20    7.0   264    10.1   977.7    0.00 
  38   14:40   0.49   79.2    21    7.6   252    11.1   977.6    0.00 
  38   14:50   0.47   79.0    23    6.9   254    11.8   977.6    0.00 
  38   15:00   0.44   78.8    24    6.6   266    11.2   977.7    0.00 
  38   15:10   0.42   78.5    25    8.2   269    12.4   977.8    0.00 
  38   15:20   0.39   78.3    25    7.6   267    12.8   977.8    0.00 
  38   15:30   0.36   78.2    24    7.6   265    11.2   977.9    0.00 
  38   15:40   0.33   78.0    22    8.2   254    12.8   977.9    0.00 
  38   15:50   0.30   77.8    22    8.3   254    11.2   978.0    0.00 
  38   16:00   0.27   77.6    22    7.2   258     9.9   978.0    0.00 
  38   16:10   0.24   77.5    23    6.5   262     8.6   978.0    0.00 
  38   16:20   0.20   77.4    24    6.4   272    10.2   977.9    0.00 
  38   16:30   0.17   77.3    24    4.9   275     8.3   977.9    0.00 
  38   16:40   0.14   76.8    24    4.7   264     7.1   978.0    0.00 
  38   16:50   0.11   76.4    25    4.3   271     7.2   978.0    0.00 
  38   17:00   0.08   75.9    27    4.5   283     6.4   978.0    0.00 
  38   17:10   0.06   75.1    28    4.4   289     7.2   978.0    0.00 
  38   17:20   0.03   74.1    28    2.9   280     4.9   978.1    0.00 
  38   17:30   0.01   72.8    28    3.6   305     5.3   978.1    0.00 
  38   17:40   0.00   72.0    30    2.6   308     4.4   978.1    0.00 
  38   17:50   0.00   69.0    33    0.7   312     2.3   977.9    0.00 
  38   18:00   0.00   65.8    37    0.3   336     2.3   977.8    0.00 
  38   18:10   0.00   64.8    38    0.2    58     2.0   977.8    0.00 
  38   18:20   0.00   63.0    40    1.3    44     2.7   977.9    0.00 
  38   18:30   0.00   62.4    41    2.0   356     3.9   977.9    0.00 
  38   18:40   0.00   60.1    46    1.9   359     3.7   978.0    0.00 
  38   18:50   0.00   60.1    45    1.9   334     3.6   978.0    0.00 
  38   19:00   0.00   59.1    46    2.6   352     6.6   978.1    0.00 
  38   19:10   0.00   57.8    48    1.9   338     4.6   978.1    0.00 
  38   19:20   0.00   57.7    47    0.9   323     4.0   978.2    0.00 
  38   19:30   0.00   56.4    49    3.1   334     4.9   978.3    0.00 
  38   19:40   0.00   56.4    49    1.4   303     3.2   978.3    0.00 
  38   19:50   0.00   56.3    48    2.6   360     5.7   978.5    0.00 
  38   20:00   0.00   56.3    49    0.7   287     2.1   978.5    0.00 
  38   20:10   0.00   55.8    49    0.5    94     2.9   978.5    0.00 
  38   20:20   0.00   55.9    49    1.1   326     2.8   978.5    0.00 
  38   20:30   0.00   54.6    51    2.0   339     3.4   978.7    0.00 
  38   20:40   0.00   54.4    52    2.3   291     4.6   978.7    0.00 
  38   20:50   0.00   54.5    52    2.1     4     3.6   978.8    0.00 
  38   21:00   0.00   54.0    53    2.0   320     3.9   978.8    0.00 
  38   21:10   0.00   54.7    51    2.8   351     6.6   978.9    0.00 
  38   21:20   0.00   53.7    54    1.7   300     6.6   979.0    0.00 
  38   21:30   0.00   54.4    52    0.1   314     1.2   979.1    0.00 
  38   21:40   0.00   53.8    53    1.0   358     4.2   979.2    0.00 
  38   21:50   0.00   53.6    53    1.9   328     4.0   979.2    0.00 
  38   22:00   0.00   53.7    52    0.9   321     3.5   979.3    0.00 
  38   22:10   0.00   53.1    53    1.1   256     2.9   979.4    0.00 
  38   22:20   0.00   53.9    50    2.4   356     5.5   979.4    0.00 
  38   22:30   0.00   54.9    49    1.6   319     4.2   979.3    0.00 
  38   22:40   0.00   54.1    51    1.9   292     3.9   979.3    0.00 
  38   22:50   0.00   53.8    51    0.4    10     2.0   979.3    0.00 

Return to Sedgwick Reserve graphs page.


Western Regional Climate Center,wrcc@dri.edu